Rhine, North Carolina
Current Conditions -  °F | °C
As of 2:55 AM on Thursday 23 Oct 2014 (Local Time) from KGEV Reporting Station
Clear Clear  
Wind Chill: 41°   Ceiling: Unl
Heat Index: 41°   Visibility: 10mi
Dew Point: 33°   Wind: 3mph
Humidity: 73%   Direction: 330°NNW
Pressure: 30.09"   Gusts: NA
Location:  36.4009°N, 81.4072°W
Report Text: KGEV 230655Z AUTO 33003KT 10SM CLR 05/01 A3009 RMK AO2 T00500005
Loading
Personal Weather Stations






























Interactive Weather Map
Tropical Storm Tracking
New forecast layout! Learn more

10-Day Weather Forecast

Advertisements
Track Severe Weather on mobile